Weather reports worldwide

Advertisment
Rodkallen, Sweden (2188): temperature & dewpoint: 16.07.2019 04:00:00 - 22.07.2019 04:00:00 (CEST)Rodkallen, Sweden (2188): wind speed & gusts: 16.07.2019 04:00:00 - 22.07.2019 04:00:00 (CEST)Rodkallen, Sweden (2188): wind direction: 16.07.2019 04:00:00 - 22.07.2019 04:00:00 (CEST)Rodkallen, Sweden (2188): visibility: 16.07.2019 04:00:00 - 22.07.2019 04:00:00 (CEST)Rodkallen, Sweden (2188): precipitation: 16.07.2019 04:00:00 - 22.07.2019 04:00:00 (CEST)
Date & Time tt [°C] td [°C] ff [km/h] ff [kn] fx [km/h] fx [kn] dd vv [km] rr [mm]
22.07.2019 04:00:00 - - - - - - - - -
22.07.2019 03:00:00 17,0 15,2 9 5 16 8 SW 29 0,0
22.07.2019 02:00:00 17,6 14,7 14 8 19 10 SSE 50 0,0
22.07.2019 01:00:00 17,8 14,3 14 8 21 11 SSE 50 0,0
22.07.2019 00:00:00 17,8 14,9 18 10 26 14 SSE 50 0,0
21.07.2019 23:00:00 17,9 14,4 22 12 28 15 SE 50 0,0
21.07.2019 22:00:00 18,0 14,3 23 12 29 16 SE 50 0,0
21.07.2019 21:00:00 18,0 14,7 20 11 29 16 SE 43 0,0
21.07.2019 20:00:00 18,6 13,7 21 12 27 14 SSE 47 0,0
21.07.2019 19:00:00 18,6 13,7 18 10 26 14 SSE 49 0,0
21.07.2019 18:00:00 18,5 14,0 21 11 29 15 SSE 46 0,0
21.07.2019 17:00:00 18,5 14,0 23 12 28 15 SSE 45 0,0
21.07.2019 16:00:00 18,5 14,0 21 11 27 14 SSE 49 0,0
21.07.2019 15:00:00 19,0 13,4 23 13 30 16 SSE 32 0,0
21.07.2019 14:00:00 19,1 14,1 22 12 27 14 S 32 0,0
21.07.2019 13:00:00 19,0 13,6 21 11 26 14 S 42 0,0
21.07.2019 12:00:00 18,6 13,7 21 12 25 14 S 33 0,0
21.07.2019 11:00:00 18,8 14,1 21 11 27 14 S 38 0,0
21.07.2019 10:00:00 18,0 14,1 23 12 28 15 S 44 0,0
21.07.2019 09:00:00 17,4 14,1 15 8 18 10 S 34 0,0
21.07.2019 08:00:00 17,2 13,7 14 7 16 9 S 35 0,0
21.07.2019 07:00:00 17,0 13,5 13 7 18 10 S 48 0,0
21.07.2019 06:00:00 16,8 13,9 13 7 21 12 S 30 0,0
21.07.2019 05:00:00 16,7 13,8 19 10 27 14 S 44 0,0
21.07.2019 04:00:00 16,9 14,0 22 12 27 15 S 50 0,0
21.07.2019 03:00:00 17,0 14,3 23 12 29 16 SSE 50 0,0
21.07.2019 02:00:00 17,1 14,4 21 12 27 14 SSE 50 0,0
21.07.2019 01:00:00 17,3 14,0 23 13 29 15 SSE 50 0,0
21.07.2019 00:00:00 17,2 14,5 22 12 27 15 SSE 50 0,0
20.07.2019 23:00:00 17,3 14,0 21 12 27 15 SSE 50 0,0
20.07.2019 22:00:00 17,4 13,7 20 11 25 13 SSE 50 0,0
20.07.2019 21:00:00 17,6 13,9 19 11 24 13 SSE 47 0,0
20.07.2019 20:00:00 17,9 13,8 18 10 22 12 SSE 48 0,0
20.07.2019 19:00:00 18,1 13,4 19 11 26 14 SSE 45 0,0
20.07.2019 18:00:00 18,1 13,0 19 11 25 13 SSE 44 0,0
20.07.2019 17:00:00 18,1 13,4 20 11 25 14 SSE 46 0,0
20.07.2019 16:00:00 18,9 13,1 21 11 26 14 S 40 0,0
20.07.2019 15:00:00 18,8 13,0 20 11 28 15 S 43 0,0
20.07.2019 14:00:00 18,9 12,4 22 12 26 14 S 41 0,0
20.07.2019 13:00:00 18,9 13,1 20 11 23 13 S 42 0,0
20.07.2019 12:00:00 19,4 12,4 16 9 19 10 S 32 0,0
20.07.2019 11:00:00 19,2 12,5 14 8 18 10 S 31 0,0
20.07.2019 10:00:00 18,5 11,3 14 8 17 9 S 44 0,0
20.07.2019 09:00:00 18,5 12,3 15 8 17 9 S 37 0,0
20.07.2019 08:00:00 17,5 12,6 14 8 16 9 S 38 0,0
20.07.2019 07:00:00 17,3 13,6 13 7 14 8 SSE 44 0,0
20.07.2019 06:00:00 17,1 13,8 6 4 9 5 SSE 45 0,0
20.07.2019 05:00:00 16,6 12,7 5 3 5 3 SE 48 0,0
20.07.2019 04:00:00 16,3 11,9 3 2 5 3 SW 18 0,0
20.07.2019 03:00:00 16,3 12,1 5 3 9 5 WSW 47 0,0
20.07.2019 02:00:00 16,3 12,7 8 4 13 7 W 43 0,0
20.07.2019 01:00:00 16,2 13,1 12 6 16 9 WSW 50 0,0
20.07.2019 00:00:00 16,1 13,2 12 6 15 8 WSW 50 0,0
19.07.2019 23:00:00 16,2 14,0 9 5 11 6 SW 50 0,0
19.07.2019 22:00:00 16,4 14,2 9 5 12 6 SW 43 0,0
19.07.2019 21:00:00 16,9 14,0 10 5 15 8 SSW 48 0,0
19.07.2019 20:00:00 17,1 13,6 12 7 14 7 SSW 49 0,0
19.07.2019 19:00:00 17,2 13,1 11 6 16 9 S 50 0,0
19.07.2019 18:00:00 17,3 13,4 16 8 18 10 SSW 48 0,0
19.07.2019 17:00:00 18,1 12,5 16 8 17 9 S 42 0,0
19.07.2019 16:00:00 18,8 12,8 14 8 17 9 S 49 0,0
19.07.2019 15:00:00 17,4 11,9 11 6 14 8 SSE 36 0,0
19.07.2019 14:00:00 17,1 12,0 10 6 14 8 SSE 47 0,0
19.07.2019 13:00:00 16,9 12,6 7 4 10 5 SE 29 0,0
19.07.2019 12:00:00 17,1 12,6 5 3 12 6 E 34 0,0
19.07.2019 11:00:00 16,8 12,9 7 4 14 8 E 24 0,0
19.07.2019 10:00:00 15,9 13,0 13 7 16 9 ENE 28 0,0
19.07.2019 09:00:00 16,1 13,2 13 7 19 10 ENE 43 0,0
19.07.2019 08:00:00 16,3 13,4 15 8 19 10 E 43 0,0
19.07.2019 07:00:00 16,2 12,9 9 5 11 6 NE 30 0,0
19.07.2019 06:00:00 15,7 13,0 7 4 10 6 NNW 36 0,0
19.07.2019 05:00:00 15,8 11,8 7 4 12 7 N 41 0,0
19.07.2019 04:00:00 14,6 9,4 8 4 13 7 NW 47 0,0
19.07.2019 03:00:00 14,4 10,6 9 5 11 6 NW 50 0,0
19.07.2019 02:00:00 14,6 10,2 8 4 11 6 NW 49 0,0
19.07.2019 01:00:00 14,9 10,1 10 5 13 7 WNW 50 0,0
19.07.2019 00:00:00 16,0 11,4 9 5 11 6 W 50 0,0
18.07.2019 23:00:00 16,0 11,2 8 4 10 5 W 48 0,0
18.07.2019 22:00:00 16,3 10,4 8 5 11 6 W 20 0,0
18.07.2019 21:00:00 16,8 11,3 9 5 10 6 W 50 0,0
18.07.2019 20:00:00 17,5 11,1 10 5 14 8 WSW 49 0,0
18.07.2019 19:00:00 17,7 11,0 12 7 14 8 W 45 0,0
18.07.2019 18:00:00 17,9 10,5 7 4 8 5 WSW 33 0,0
18.07.2019 17:00:00 17,5 9,3 4 2 6 4 SSW 10 0,0
18.07.2019 16:00:00 17,4 9,3 5 3 10 5 SSE 27 0,0
18.07.2019 15:00:00 16,9 9,8 6 4 15 8 E 38 0,0
18.07.2019 14:00:00 16,4 11,5 9 5 13 7 E 31 0,0
18.07.2019 13:00:00 16,8 11,7 7 4 11 6 E 31 0,0
18.07.2019 12:00:00 16,2 9,8 6 3 9 5 ENE 33 0,0
18.07.2019 11:00:00 15,5 11,5 8 4 16 8 ENE 28 0,0
18.07.2019 10:00:00 15,1 12,4 12 7 16 9 ENE 29 0,0
18.07.2019 09:00:00 15,4 12,2 11 6 17 9 NE 30 0,0
18.07.2019 08:00:00 15,4 11,8 11 6 14 8 NE 36 0,0
18.07.2019 07:00:00 15,4 12,2 11 6 15 8 N 32 0,0
18.07.2019 06:00:00 14,3 12,0 9 5 11 6 NNW 36 0,0
18.07.2019 05:00:00 14,3 11,8 5 3 9 5 NNW 50 0,0
18.07.2019 04:00:00 14,4 11,0 5 3 8 4 N 49 0,0
18.07.2019 03:00:00 14,4 10,4 7 4 10 6 NNE 50 0,0
18.07.2019 02:00:00 14,4 11,5 6 3 10 5 NNE 50 0,0
18.07.2019 01:00:00 13,4 9,3 6 4 9 5 NNW 50 0,0
18.07.2019 00:00:00 13,4 9,4 4 2 5 3 N 50 0,0
17.07.2019 23:00:00 13,7 9,7 3 1 7 4 N 42 0,0
17.07.2019 22:00:00 14,0 9,6 3 1 4 2 N 50 0,0
17.07.2019 21:00:00 14,9 10,1 3 2 6 3 NNE 16 0,0
17.07.2019 20:00:00 15,2 9,3 2 1 6 3 ENE 47 0,0
17.07.2019 19:00:00 15,5 10,5 5 3 9 5 E 46 0,0
17.07.2019 18:00:00 15,8 10,1 6 3 10 5 E 37 0,0
17.07.2019 17:00:00 15,5 10,1 9 5 12 7 E 37 0,0
17.07.2019 16:00:00 15,6 10,1 9 5 16 9 E 41 0,0
17.07.2019 15:00:00 15,2 10,2 14 8 16 9 E 50 0,0
17.07.2019 14:00:00 15,3 10,1 13 7 17 9 ENE 30 0,0
17.07.2019 13:00:00 15,3 10,9 14 8 21 11 ENE 37 0,0
17.07.2019 12:00:00 15,0 10,8 17 9 22 12 ENE 41 0,0
17.07.2019 11:00:00 14,6 10,4 17 9 23 12 NE 35 0,0
17.07.2019 10:00:00 14,2 10,6 19 10 24 13 NE 37 0,0
17.07.2019 09:00:00 14,6 11,0 18 10 21 11 NE 39 0,0
17.07.2019 08:00:00 14,4 10,8 15 8 20 11 NNE 45 0,0
17.07.2019 07:00:00 14,8 11,4 14 7 17 9 NNE 43 0,0
17.07.2019 06:00:00 14,5 10,7 12 7 15 8 N 45 0,0
17.07.2019 05:00:00 13,8 10,4 10 5 15 8 NNW 50 0,0
17.07.2019 04:00:00 14,1 9,1 13 7 17 9 N 50 0,0
17.07.2019 03:00:00 13,8 9,6 11 6 16 9 N 50 0,0
17.07.2019 02:00:00 13,6 9,4 10 5 14 7 NNW 50 0,0
17.07.2019 01:00:00 13,3 9,4 10 5 12 7 NW 50 0,0
17.07.2019 00:00:00 13,6 8,2 5 3 6 4 NW 50 0,0
16.07.2019 23:00:00 13,8 7,6 5 3 6 3 NNW 50 0,0
16.07.2019 22:00:00 13,4 8,0 5 3 6 4 N 50 0,0
16.07.2019 21:00:00 14,8 7,6 2 1 6 3 ENE 50 0,0
16.07.2019 20:00:00 15,1 7,6 4 2 9 5 E 18 0,0
16.07.2019 19:00:00 15,2 8,0 6 3 9 5 E 35 0,0
16.07.2019 18:00:00 15,5 7,8 5 3 11 6 E 42 0,0
16.07.2019 17:00:00 15,3 9,4 7 4 10 5 ENE 32 0,0
16.07.2019 16:00:00 15,3 9,4 6 4 10 6 E 33 0,0
16.07.2019 15:00:00 15,1 10,1 9 5 13 7 ENE 39 0,0
16.07.2019 14:00:00 14,9 10,7 10 5 14 7 ENE 30 0,0
16.07.2019 13:00:00 14,8 11,0 13 7 16 9 NE 38 0,0
16.07.2019 12:00:00 14,5 10,7 13 7 21 11 ENE 35 0,0
16.07.2019 11:00:00 14,0 10,4 18 10 24 13 NE 28 0,0
16.07.2019 10:00:00 13,8 10,0 20 11 24 13 NNE 37 0,0
16.07.2019 09:00:00 13,6 9,6 22 12 27 14 NNE 46 0,0
16.07.2019 08:00:00 13,5 9,7 21 12 27 15 NNE 40 0,0
16.07.2019 07:00:00 13,9 9,1 22 12 27 15 N 39 0,0
16.07.2019 06:00:00 13,5 9,4 22 12 26 14 N 39 0,0
16.07.2019 05:00:00 13,3 9,4 18 10 27 14 NNE 47 0,0
16.07.2019 04:00:00 13,1 9,4 19 11 28 15 NNE 46 0,0

tt = temperature
td = dewpoint
ff = wind speed
fx = gusts
dd = wind direction
vv = visibility
rr = precipitation

Next stations